createdAt,value
2023-02-09T00:00:01.827Z,85.14
2023-02-09T00:00:59.133Z,85.03
2023-02-09T00:01:59.156Z,85.25
2023-02-09T00:02:59.108Z,85.46
2023-02-09T00:03:59.249Z,85.68
2023-02-09T00:04:59.077Z,85.89
2023-02-09T00:05:59.078Z,85.99
2023-02-09T00:07:00.722Z,85.99
2023-02-09T00:07:59.057Z,86.10
2023-02-09T00:08:59.041Z,86.10
2023-02-09T00:09:59.023Z,86.10
2023-02-09T00:10:59.010Z,86.14
2023-02-09T00:11:59.126Z,86.14
2023-02-09T00:12:59.011Z,85.93
2023-02-09T00:13:59.000Z,85.82
2023-02-09T00:14:58.965Z,85.71
2023-02-09T00:15:59.033Z,85.61
2023-02-09T00:16:58.936Z,85.61
2023-02-09T00:17:58.926Z,85.71
2023-02-09T00:18:58.933Z,85.71
2023-02-09T00:19:58.905Z,85.71
2023-02-09T00:20:58.911Z,85.71
2023-02-09T00:21:58.887Z,85.71
2023-02-09T00:22:58.863Z,85.82
2023-02-09T00:23:58.863Z,85.71
2023-02-09T00:24:58.841Z,85.50
2023-02-09T00:25:58.844Z,85.50
2023-02-09T00:26:58.819Z,85.39
2023-02-09T00:27:58.889Z,85.43
2023-02-09T00:28:58.800Z,85.32
2023-02-09T00:29:58.788Z,85.32
2023-02-09T00:30:58.853Z,85.43
2023-02-09T00:31:58.841Z,85.53
2023-02-09T00:32:58.741Z,85.64
2023-02-09T00:33:58.763Z,85.75
2023-02-09T00:34:58.720Z,85.86
2023-02-09T00:35:58.711Z,85.75
2023-02-09T00:36:58.692Z,85.64
2023-02-09T00:37:58.693Z,85.53
2023-02-09T00:38:58.686Z,85.43
2023-02-09T00:39:58.663Z,85.47
2023-02-09T00:40:58.645Z,85.47
2023-02-09T00:41:58.642Z,85.58
2023-02-09T00:42:58.635Z,85.47
2023-02-09T00:43:58.624Z,85.36
2023-02-09T00:44:58.743Z,85.36
2023-02-09T00:45:58.674Z,85.58
2023-02-09T00:46:58.592Z,85.68
2023-02-09T00:47:58.569Z,85.68
2023-02-09T00:48:58.575Z,85.79
2023-02-09T00:49:58.542Z,85.79
2023-02-09T00:50:58.580Z,85.89
2023-02-09T00:51:58.540Z,86.00
2023-02-09T00:52:58.501Z,86.00
2023-02-09T00:53:58.490Z,86.11
2023-02-09T00:54:58.482Z,86.21
2023-02-09T00:55:58.474Z,86.43
2023-02-09T00:56:58.442Z,86.43
2023-02-09T00:57:58.441Z,86.47
2023-02-09T00:58:58.421Z,86.47
2023-02-09T00:59:58.432Z,86.47
2023-02-09T01:00:58.447Z,86.36
2023-02-09T01:01:58.394Z,86.57
2023-02-09T01:02:58.384Z,86.68
2023-02-09T01:03:58.384Z,86.79
2023-02-09T01:04:58.441Z,87.00
2023-02-09T01:05:58.351Z,87.10
2023-02-09T01:06:58.327Z,87.10
2023-02-09T01:07:58.328Z,87.21
2023-02-09T01:08:58.298Z,87.64
2023-02-09T01:09:58.301Z,88.28
2023-02-09T01:10:58.285Z,88.92
2023-02-09T01:11:58.270Z,89.13
2023-02-09T01:12:58.244Z,89.13
2023-02-09T01:13:58.276Z,89.13
2023-02-09T01:14:58.243Z,88.92
2023-02-09T01:15:58.222Z,88.71
2023-02-09T01:16:58.268Z,88.60
2023-02-09T01:17:58.222Z,88.39
2023-02-09T01:18:58.170Z,88.39
2023-02-09T01:19:58.185Z,88.39
2023-02-09T01:20:58.165Z,88.39
2023-02-09T01:21:58.160Z,88.39
2023-02-09T01:22:58.129Z,88.39
2023-02-09T01:23:58.120Z,88.32
2023-02-09T01:24:58.121Z,88.21
2023-02-09T01:25:58.085Z,88.07
2023-02-09T01:26:58.090Z,87.96
2023-02-09T01:27:58.137Z,87.89
2023-02-09T01:28:58.054Z,87.79
2023-02-09T01:29:58.061Z,87.53
2023-02-09T01:30:58.145Z,87.32
2023-02-09T01:31:58.125Z,87.21
2023-02-09T01:32:58.005Z,87.32
2023-02-09T01:33:57.988Z,87.36
2023-02-09T01:34:58.006Z,87.36
2023-02-09T01:35:57.991Z,87.46
2023-02-09T01:36:57.955Z,87.57
2023-02-09T01:37:57.940Z,87.57
2023-02-09T01:38:57.954Z,87.46
2023-02-09T01:39:57.943Z,87.32
2023-02-09T01:40:57.904Z,87.32
2023-02-09T01:41:57.897Z,87.32
2023-02-09T01:42:57.885Z,87.32
2023-02-09T01:43:57.884Z,87.46
2023-02-09T01:44:57.875Z,87.57
2023-02-09T01:45:57.887Z,87.89
2023-02-09T01:46:57.833Z,88.10
2023-02-09T01:47:57.831Z,88.21
2023-02-09T01:48:57.815Z,88.32
2023-02-09T01:49:57.812Z,88.21
2023-02-09T01:50:57.806Z,88.10
2023-02-09T01:51:57.774Z,88.00
2023-02-09T01:52:57.779Z,87.89
2023-02-09T01:53:57.759Z,87.68
2023-02-09T01:54:57.751Z,87.57
2023-02-09T01:55:57.725Z,87.36
2023-02-09T01:56:57.709Z,87.25
2023-02-09T01:57:57.699Z,87.04
2023-02-09T01:58:57.689Z,86.93
2023-02-09T01:59:57.678Z,86.82
2023-02-09T02:00:59.889Z,86.72
2023-02-09T02:01:57.649Z,86.61
2023-02-09T02:02:57.651Z,86.51
2023-02-09T02:03:57.623Z,86.29
2023-02-09T02:04:57.633Z,86.40
2023-02-09T02:05:57.607Z,86.51
2023-02-09T02:06:57.588Z,86.72
2023-02-09T02:07:57.593Z,86.72
2023-02-09T02:08:57.577Z,86.93
2023-02-09T02:09:57.571Z,87.46
2023-02-09T02:10:57.536Z,87.72
2023-02-09T02:11:57.525Z,87.82
2023-02-09T02:12:57.522Z,87.93
2023-02-09T02:13:57.522Z,88.04
2023-02-09T02:14:57.504Z,87.93
2023-02-09T02:15:57.507Z,87.82
2023-02-09T02:16:57.461Z,87.61
2023-02-09T02:17:57.443Z,87.40
2023-02-09T02:18:57.440Z,87.29
2023-02-09T02:19:57.428Z,87.18
2023-02-09T02:20:57.411Z,87.18
2023-02-09T02:21:57.394Z,87.18
2023-02-09T02:22:57.379Z,87.18
2023-02-09T02:23:57.366Z,87.18
2023-02-09T02:24:57.375Z,87.18
2023-02-09T02:25:57.353Z,87.18
2023-02-09T02:26:57.339Z,87.08
2023-02-09T02:27:57.319Z,87.08
2023-02-09T02:28:57.309Z,86.97
2023-02-09T02:29:57.296Z,86.97
2023-02-09T02:30:57.442Z,86.97
2023-02-09T02:31:57.298Z,86.97
2023-02-09T02:32:57.259Z,87.08
2023-02-09T02:33:57.240Z,87.18
2023-02-09T02:34:57.231Z,87.18
2023-02-09T02:35:57.245Z,87.40
2023-02-09T02:36:57.212Z,87.61
2023-02-09T02:37:57.190Z,87.72
2023-02-09T02:38:57.196Z,87.87
2023-02-09T02:39:57.172Z,87.97
2023-02-09T02:40:57.169Z,87.97
2023-02-09T02:41:57.142Z,87.87
2023-02-09T02:42:57.131Z,87.76
2023-02-09T02:43:57.119Z,87.76
2023-02-09T02:44:57.118Z,87.87
2023-02-09T02:45:57.128Z,87.87
2023-02-09T02:46:57.080Z,87.87
2023-02-09T02:47:57.083Z,87.87
2023-02-09T02:48:57.070Z,87.76
2023-02-09T02:49:57.052Z,87.76
2023-02-09T02:50:57.079Z,87.65
2023-02-09T02:51:57.038Z,87.44
2023-02-09T02:52:57.025Z,87.33
2023-02-09T02:53:57.001Z,87.12
2023-02-09T02:54:56.992Z,86.90
2023-02-09T02:55:56.981Z,86.83
2023-02-09T02:56:56.976Z,86.83
2023-02-09T02:57:56.964Z,86.73
2023-02-09T02:58:56.939Z,86.62
2023-02-09T02:59:56.930Z,86.52
2023-02-09T03:00:56.932Z,86.41
2023-02-09T03:01:56.949Z,86.30
2023-02-09T03:02:56.902Z,86.19
2023-02-09T03:03:56.878Z,86.19
2023-02-09T03:04:56.909Z,86.09
2023-02-09T03:05:56.870Z,85.98
2023-02-09T03:06:56.853Z,85.88
2023-02-09T03:07:56.829Z,85.98
2023-02-09T03:08:56.822Z,85.98
2023-02-09T03:09:56.818Z,86.30
2023-02-09T03:10:56.808Z,86.52
2023-02-09T03:11:56.788Z,86.62
2023-02-09T03:12:56.785Z,86.73
2023-02-09T03:13:56.760Z,86.83
2023-02-09T03:14:56.760Z,86.83
2023-02-09T03:15:56.771Z,86.73
2023-02-09T03:16:56.740Z,86.62
2023-02-09T03:17:56.706Z,86.52
2023-02-09T03:18:56.707Z,86.41
2023-02-09T03:19:56.696Z,86.30
2023-02-09T03:20:56.675Z,86.30
2023-02-09T03:21:56.672Z,86.52
2023-02-09T03:22:56.655Z,86.83
2023-02-09T03:23:56.641Z,87.19
2023-02-09T03:24:56.628Z,87.59
2023-02-09T03:25:56.621Z,87.84
2023-02-09T03:26:56.611Z,87.94
2023-02-09T03:27:56.643Z,87.94
2023-02-09T03:28:56.579Z,88.05
2023-02-09T03:29:56.560Z,88.05
2023-02-09T03:30:56.667Z,88.15
2023-02-09T03:31:56.588Z,88.15
2023-02-09T03:32:56.536Z,88.26
2023-02-09T03:33:56.513Z,88.37
2023-02-09T03:34:56.500Z,88.48
2023-02-09T03:35:56.492Z,88.48
2023-02-09T03:36:56.492Z,88.48
2023-02-09T03:37:56.460Z,88.48
2023-02-09T03:38:56.457Z,88.48
2023-02-09T03:39:56.438Z,88.48
2023-02-09T03:40:56.457Z,88.48
2023-02-09T03:41:56.430Z,88.48
2023-02-09T03:42:56.434Z,88.48
2023-02-09T03:43:56.391Z,88.48
2023-02-09T03:44:56.395Z,88.58
2023-02-09T03:45:56.366Z,88.58
2023-02-09T03:46:56.374Z,88.58
2023-02-09T03:47:56.348Z,88.58
2023-02-09T03:48:56.342Z,88.48
2023-02-09T03:49:56.322Z,88.37
2023-02-09T03:50:56.315Z,88.37
2023-02-09T03:51:56.304Z,88.37
2023-02-09T03:52:56.292Z,88.26
2023-02-09T03:53:56.287Z,88.15
2023-02-09T03:54:56.261Z,88.15
2023-02-09T03:55:56.252Z,88.15
2023-02-09T03:56:56.268Z,88.05
2023-02-09T03:57:56.220Z,87.94
2023-02-09T03:58:56.209Z,87.84
2023-02-09T03:59:56.211Z,87.84
2023-02-09T04:00:56.233Z,87.84
2023-02-09T04:01:56.177Z,87.73
2023-02-09T04:02:56.178Z,87.73
2023-02-09T04:03:56.151Z,87.73
2023-02-09T04:04:56.137Z,87.62
2023-02-09T04:05:56.136Z,87.51
2023-02-09T04:06:56.132Z,87.30
2023-02-09T04:07:56.095Z,87.19
2023-02-09T04:08:56.093Z,86.98
2023-02-09T04:09:56.073Z,86.98
2023-02-09T04:10:56.073Z,86.98
2023-02-09T04:11:56.060Z,86.87
2023-02-09T04:12:56.053Z,86.87
2023-02-09T04:13:56.064Z,86.87
2023-02-09T04:14:56.013Z,87.08
2023-02-09T04:15:56.020Z,87.19
2023-02-09T04:16:56.031Z,87.30
2023-02-09T04:17:55.985Z,87.30
2023-02-09T04:18:55.977Z,87.30
2023-02-09T04:19:55.962Z,87.19
2023-02-09T04:20:55.968Z,87.19
2023-02-09T04:21:55.939Z,87.30
2023-02-09T04:22:55.929Z,87.62
2023-02-09T04:23:55.920Z,88.05
2023-02-09T04:24:55.901Z,88.15
2023-02-09T04:25:55.897Z,88.26
2023-02-09T04:26:55.928Z,88.26
2023-02-09T04:27:55.972Z,88.26
2023-02-09T04:28:55.861Z,88.15
2023-02-09T04:29:55.836Z,87.94
2023-02-09T04:30:55.872Z,87.84
2023-02-09T04:31:55.875Z,87.84
2023-02-09T04:32:55.808Z,87.62
2023-02-09T04:33:55.786Z,87.55
2023-02-09T04:34:55.784Z,87.55
2023-02-09T04:35:55.789Z,87.55
2023-02-09T04:36:55.779Z,87.55
2023-02-09T04:37:55.745Z,87.66
2023-02-09T04:38:55.737Z,87.66
2023-02-09T04:39:55.716Z,87.77
2023-02-09T04:40:55.711Z,87.66
2023-02-09T04:41:55.698Z,87.73
2023-02-09T04:42:55.694Z,87.77
2023-02-09T04:43:55.665Z,87.66
2023-02-09T04:44:55.657Z,87.66
2023-02-09T04:45:55.705Z,87.66
2023-02-09T04:46:55.645Z,87.77
2023-02-09T04:47:55.621Z,87.77
2023-02-09T04:48:55.614Z,87.77
2023-02-09T04:49:55.607Z,87.73
2023-02-09T04:50:55.629Z,87.66
2023-02-09T04:51:55.597Z,87.66
2023-02-09T04:52:55.570Z,87.77
2023-02-09T04:53:56.387Z,87.87
2023-02-09T04:54:55.551Z,87.98
2023-02-09T04:55:55.533Z,88.20
2023-02-09T04:56:55.712Z,88.30
2023-02-09T04:57:55.554Z,88.30
2023-02-09T04:58:55.504Z,88.30
2023-02-09T04:59:55.482Z,88.30
2023-02-09T05:00:55.528Z,88.30
2023-02-09T05:01:55.457Z,88.30
2023-02-09T05:02:55.461Z,88.20
2023-02-09T05:03:55.504Z,88.20
2023-02-09T05:04:55.428Z,88.41
2023-02-09T05:05:55.409Z,88.51
2023-02-09T05:06:55.405Z,88.95
2023-02-09T05:07:55.393Z,89.59
2023-02-09T05:08:55.391Z,89.97
2023-02-09T05:09:55.360Z,90.30
2023-02-09T05:10:55.354Z,90.40
2023-02-09T05:11:55.347Z,90.40
2023-02-09T05:12:55.336Z,90.40
2023-02-09T05:13:55.312Z,90.40
2023-02-09T05:14:55.310Z,90.44
2023-02-09T05:15:55.304Z,90.55
2023-02-09T05:16:55.339Z,90.55
2023-02-09T05:17:55.277Z,90.66
2023-02-09T05:18:55.256Z,90.66
2023-02-09T05:19:55.238Z,90.66
2023-02-09T05:20:55.236Z,90.66
2023-02-09T05:21:55.219Z,90.66
2023-02-09T05:22:55.224Z,90.55
2023-02-09T05:23:55.202Z,90.44
2023-02-09T05:24:55.187Z,90.33
2023-02-09T05:25:55.184Z,90.23
2023-02-09T05:26:55.164Z,90.12
2023-02-09T05:27:55.196Z,90.12
2023-02-09T05:28:55.141Z,90.19
2023-02-09T05:29:55.121Z,90.19
2023-02-09T05:30:55.149Z,90.19
2023-02-09T05:31:55.121Z,90.19
2023-02-09T05:32:55.158Z,90.08
2023-02-09T05:33:55.085Z,89.97
2023-02-09T05:34:55.079Z,89.87
2023-02-09T05:35:55.076Z,89.87
2023-02-09T05:36:55.051Z,89.76
2023-02-09T05:37:55.050Z,89.65
2023-02-09T05:38:55.025Z,89.54
2023-02-09T05:39:55.008Z,89.54
2023-02-09T05:40:55.000Z,89.65
2023-02-09T05:41:54.988Z,89.87
2023-02-09T05:42:54.984Z,90.19
2023-02-09T05:43:54.948Z,90.40
2023-02-09T05:44:54.949Z,90.51
2023-02-09T05:45:54.991Z,90.61
2023-02-09T05:46:54.926Z,90.72
2023-02-09T05:47:54.917Z,90.94
2023-02-09T05:48:54.900Z,90.94
2023-02-09T05:49:54.900Z,91.04
2023-02-09T05:50:54.996Z,91.36
2023-02-09T05:51:54.876Z,91.36
2023-02-09T05:52:54.853Z,91.47
2023-02-09T05:53:54.833Z,91.47
2023-02-09T05:54:54.825Z,91.47
2023-02-09T05:55:54.838Z,91.47
2023-02-09T05:56:54.791Z,91.47
2023-02-09T05:57:54.811Z,91.47
2023-02-09T05:58:54.780Z,91.58
2023-02-09T05:59:54.760Z,91.68
2023-02-09T06:00:54.753Z,91.79
2023-02-09T06:01:54.749Z,91.79
2023-02-09T06:02:54.730Z,91.79
2023-02-09T06:03:54.806Z,91.68
2023-02-09T06:04:54.716Z,91.68
2023-02-09T06:05:54.688Z,91.68
2023-02-09T06:06:54.678Z,91.58
2023-02-09T06:07:54.674Z,91.58
2023-02-09T06:08:54.655Z,91.68
2023-02-09T06:09:54.648Z,91.68
2023-02-09T06:10:54.632Z,92.00
2023-02-09T06:11:54.614Z,92.32
2023-02-09T06:12:54.624Z,92.43
2023-02-09T06:13:54.609Z,92.43
2023-02-09T06:14:54.584Z,92.43
2023-02-09T06:15:54.630Z,92.43
2023-02-09T06:16:54.559Z,92.43
2023-02-09T06:17:54.562Z,92.43
2023-02-09T06:18:54.535Z,92.43
2023-02-09T06:19:54.553Z,92.43
2023-02-09T06:20:54.509Z,92.43
2023-02-09T06:21:54.510Z,92.43
2023-02-09T06:22:54.500Z,92.43
2023-02-09T06:23:54.521Z,92.43
2023-02-09T06:24:54.478Z,92.32
2023-02-09T06:25:54.461Z,92.32
2023-02-09T06:26:54.472Z,92.43
2023-02-09T06:27:54.480Z,92.54
2023-02-09T06:28:54.448Z,92.54
2023-02-09T06:29:54.448Z,92.54
2023-02-09T06:30:54.484Z,92.54
2023-02-09T06:31:54.472Z,92.43
2023-02-09T06:32:54.376Z,92.32
2023-02-09T06:33:54.368Z,92.22
2023-02-09T06:34:54.349Z,92.11
2023-02-09T06:35:54.351Z,91.89
2023-02-09T06:36:54.348Z,91.79
2023-02-09T06:37:54.324Z,91.58
2023-02-09T06:38:54.298Z,91.36
2023-02-09T06:39:54.295Z,91.25
2023-02-09T06:40:54.277Z,91.15
2023-02-09T06:41:54.278Z,91.15
2023-02-09T06:42:54.280Z,90.94
2023-02-09T06:43:54.251Z,90.83
2023-02-09T06:44:54.238Z,90.61
2023-02-09T06:45:54.268Z,90.51
2023-02-09T06:46:54.207Z,90.30
2023-02-09T06:47:54.206Z,90.08
2023-02-09T06:48:54.184Z,89.97
2023-02-09T06:49:54.174Z,89.87
2023-02-09T06:50:54.154Z,89.87
2023-02-09T06:51:54.155Z,89.65
2023-02-09T06:52:54.144Z,89.44
2023-02-09T06:53:54.137Z,89.44
2023-02-09T06:54:54.121Z,89.33
2023-02-09T06:55:54.112Z,89.08
2023-02-09T06:56:54.096Z,88.97
2023-02-09T06:57:54.089Z,88.87
2023-02-09T06:58:54.071Z,88.76
2023-02-09T06:59:54.052Z,88.87
2023-02-09T07:00:54.041Z,88.97
2023-02-09T07:01:55.064Z,88.97
2023-02-09T07:02:54.084Z,89.18
2023-02-09T07:03:54.009Z,89.29
2023-02-09T07:04:54.000Z,89.47
2023-02-09T07:05:54.000Z,89.68
2023-02-09T07:06:53.971Z,90.00
2023-02-09T07:07:53.968Z,90.21
2023-02-09T07:08:53.956Z,90.32
2023-02-09T07:09:53.944Z,90.53
2023-02-09T07:10:53.918Z,90.53
2023-02-09T07:11:53.915Z,90.42
2023-02-09T07:12:53.916Z,90.39
2023-02-09T07:13:53.894Z,90.39
2023-02-09T07:14:53.892Z,90.28
2023-02-09T07:15:53.910Z,90.28
2023-02-09T07:16:53.844Z,90.28
2023-02-09T07:17:53.857Z,90.28
2023-02-09T07:18:53.842Z,90.39
2023-02-09T07:19:53.815Z,90.60
2023-02-09T07:20:53.798Z,90.70
2023-02-09T07:21:53.794Z,90.88
2023-02-09T07:22:53.774Z,90.99
2023-02-09T07:23:53.771Z,90.99
2023-02-09T07:24:53.789Z,90.99
2023-02-09T07:25:53.747Z,91.09
2023-02-09T07:26:53.733Z,91.09
2023-02-09T07:27:53.745Z,91.20
2023-02-09T07:28:53.717Z,91.41
2023-02-09T07:29:53.701Z,91.58
2023-02-09T07:30:53.707Z,91.69
2023-02-09T07:31:53.768Z,91.91
2023-02-09T07:32:53.656Z,92.01
2023-02-09T07:33:53.658Z,92.12
2023-02-09T07:34:53.619Z,92.40
2023-02-09T07:35:53.618Z,92.82
2023-02-09T07:36:53.605Z,93.04
2023-02-09T07:37:53.589Z,93.14
2023-02-09T07:38:53.587Z,93.25
2023-02-09T07:39:53.573Z,93.52
2023-02-09T07:40:53.562Z,93.95
2023-02-09T07:41:53.549Z,94.12
2023-02-09T07:42:53.523Z,94.23
2023-02-09T07:43:53.529Z,94.51
2023-02-09T07:44:53.496Z,95.00
2023-02-09T07:45:53.496Z,94.95
2023-02-09T07:46:53.560Z,95.12
2023-02-09T07:47:53.461Z,95.29
2023-02-09T07:48:53.457Z,95.04
2023-02-09T07:49:53.444Z,94.93
2023-02-09T07:50:53.422Z,94.68
2023-02-09T07:51:53.423Z,94.46
2023-02-09T07:52:53.401Z,94.21
2023-02-09T07:53:53.405Z,94.10
2023-02-09T07:54:53.376Z,93.85
2023-02-09T07:55:53.376Z,93.64
2023-02-09T07:56:53.348Z,93.28
2023-02-09T07:57:53.335Z,93.07
2023-02-09T07:58:53.342Z,92.81
2023-02-09T07:59:53.315Z,92.60
2023-02-09T08:00:53.299Z,92.24
2023-02-09T08:01:53.343Z,91.78
2023-02-09T08:02:53.296Z,91.10
2023-02-09T08:03:53.273Z,90.78
2023-02-09T08:04:53.285Z,90.21
2023-02-09T08:05:53.256Z,89.79
2023-02-09T08:06:53.243Z,89.47
2023-02-09T08:07:53.244Z,88.80
2023-02-09T08:08:53.228Z,88.44
2023-02-09T08:09:53.203Z,87.98
2023-02-09T08:10:53.181Z,86.95
2023-02-09T08:11:53.217Z,85.96
2023-02-09T08:12:53.142Z,84.94
2023-02-09T08:13:53.152Z,83.45
2023-02-09T08:14:53.148Z,82.50
2023-02-09T08:15:53.261Z,80.39
2023-02-09T08:16:53.100Z,78.22
2023-02-09T08:17:53.103Z,76.89
2023-02-09T08:18:53.086Z,76.20
2023-02-09T08:19:53.109Z,75.43
2023-02-09T08:20:53.062Z,72.88
2023-02-09T08:21:53.050Z,71.21
2023-02-09T08:22:53.030Z,72.05
2023-02-09T08:23:53.023Z,71.11
2023-02-09T08:24:53.011Z,69.64
2023-02-09T08:25:53.009Z,68.07
2023-02-09T08:26:52.969Z,68.28
2023-02-09T08:27:53.034Z,68.38
2023-02-09T08:28:52.973Z,68.77
2023-02-09T08:29:52.977Z,69.51
2023-02-09T08:30:52.999Z,68.29
2023-02-09T08:31:52.995Z,67.74
2023-02-09T08:32:52.908Z,66.82
2023-02-09T08:33:52.904Z,66.02
2023-02-09T08:34:52.895Z,64.27
2023-02-09T08:35:52.857Z,61.82
2023-02-09T08:36:52.862Z,60.41
2023-02-09T08:37:52.850Z,60.60
2023-02-09T08:38:52.829Z,60.02
2023-02-09T08:39:52.831Z,59.24
2023-02-09T08:40:52.817Z,59.50
2023-02-09T08:41:52.788Z,55.85
2023-02-09T08:42:52.775Z,55.93
2023-02-09T08:43:52.793Z,55.26
2023-02-09T08:44:52.766Z,54.50
2023-02-09T08:45:52.873Z,55.10
2023-02-09T08:46:52.866Z,54.53
2023-02-09T08:47:52.720Z,52.88
2023-02-09T08:48:52.714Z,53.86
2023-02-09T08:49:52.742Z,53.22
2023-02-09T08:50:52.690Z,53.20
2023-02-09T08:51:52.658Z,51.42
2023-02-09T08:52:52.650Z,50.81
2023-02-09T08:53:52.867Z,50.89
2023-02-09T08:54:52.629Z,45.21
2023-02-09T08:55:52.610Z,45.62
2023-02-09T08:56:52.587Z,46.34
2023-02-09T08:57:52.588Z,45.70
2023-02-09T08:58:52.574Z,45.27
2023-02-09T08:59:52.571Z,44.35
2023-02-09T09:00:52.563Z,45.89
2023-02-09T09:01:52.536Z,45.48
2023-02-09T09:02:52.508Z,45.04
2023-02-09T09:03:52.535Z,45.25
2023-02-09T09:04:52.504Z,45.54
2023-02-09T09:05:52.482Z,45.03
2023-02-09T09:06:52.458Z,45.00
2023-02-09T09:07:52.456Z,42.73
2023-02-09T09:08:52.441Z,44.35
2023-02-09T09:09:52.442Z,44.55
2023-02-09T09:10:52.410Z,40.97
2023-02-09T09:11:52.398Z,40.86
2023-02-09T09:12:52.388Z,43.63
2023-02-09T09:13:52.378Z,44.35
2023-02-09T09:14:52.395Z,40.76
2023-02-09T09:15:52.351Z,39.43
2023-02-09T09:16:52.353Z,39.94
2023-02-09T09:17:52.332Z,39.35
2023-02-09T09:18:52.310Z,42.10
2023-02-09T09:19:52.302Z,41.17
2023-02-09T09:20:52.297Z,42.90
2023-02-09T09:21:52.272Z,42.67
2023-02-09T09:22:52.259Z,40.70
2023-02-09T09:23:52.247Z,42.44
2023-02-09T09:24:52.228Z,41.81
2023-02-09T09:25:52.229Z,38.45
2023-02-09T09:26:52.206Z,38.56
2023-02-09T09:27:52.232Z,39.70
2023-02-09T09:28:52.187Z,38.29
2023-02-09T09:29:52.168Z,39.11
2023-02-09T09:30:52.220Z,40.33
2023-02-09T09:31:52.189Z,39.51
2023-02-09T09:32:53.085Z,38.59
2023-02-09T09:33:52.146Z,38.98
2023-02-09T09:34:52.115Z,38.27
2023-02-09T09:35:52.118Z,37.96
2023-02-09T09:36:52.072Z,39.29
2023-02-09T09:37:52.066Z,39.70
2023-02-09T09:38:52.048Z,38.47
2023-02-09T09:39:52.052Z,38.57
2023-02-09T09:40:52.027Z,38.68
2023-02-09T09:41:52.014Z,38.37
2023-02-09T09:42:51.999Z,37.26
2023-02-09T09:43:51.987Z,39.11
2023-02-09T09:44:51.969Z,40.23
2023-02-09T09:45:51.975Z,40.31
2023-02-09T09:46:51.948Z,37.35
2023-02-09T09:47:51.938Z,38.90
2023-02-09T09:48:52.032Z,38.59
2023-02-09T09:49:51.897Z,41.77
2023-02-09T09:50:51.917Z,41.75
2023-02-09T09:51:51.877Z,41.95
2023-02-09T09:52:51.868Z,40.81
2023-02-09T09:53:51.858Z,37.63
2023-02-09T09:54:51.847Z,37.76
2023-02-09T09:55:51.838Z,39.80
2023-02-09T09:56:51.816Z,40.70
2023-02-09T09:57:51.785Z,40.81
2023-02-09T09:58:51.792Z,40.48
2023-02-09T09:59:51.791Z,39.14
2023-02-09T10:00:51.844Z,39.14
2023-02-09T10:01:51.752Z,36.90
2023-02-09T10:02:51.735Z,37.74
2023-02-09T10:03:51.740Z,38.76
2023-02-09T10:04:51.789Z,37.35
2023-02-09T10:05:51.706Z,38.29
2023-02-09T10:06:51.686Z,38.10
2023-02-09T10:07:51.659Z,38.01
2023-02-09T10:08:51.670Z,39.48
2023-02-09T10:09:51.648Z,39.28
2023-02-09T10:10:51.653Z,40.92
2023-02-09T10:11:51.603Z,43.26
2023-02-09T10:12:51.607Z,40.49
2023-02-09T10:13:51.585Z,41.83
2023-02-09T10:14:51.573Z,39.98
2023-02-09T10:15:51.562Z,40.80
2023-02-09T10:16:51.631Z,40.80
2023-02-09T10:17:51.532Z,41.62
2023-02-09T10:18:51.540Z,42.44
2023-02-09T10:19:52.047Z,42.73
2023-02-09T10:20:51.515Z,43.85
2023-02-09T10:21:51.472Z,42.22
2023-02-09T10:22:51.462Z,41.60
2023-02-09T10:23:51.455Z,41.91
2023-02-09T10:24:51.461Z,43.85
2023-02-09T10:25:51.454Z,42.42
2023-02-09T10:26:51.413Z,44.08
2023-02-09T10:27:51.445Z,44.29
2023-02-09T10:28:51.392Z,42.15
2023-02-09T10:29:51.361Z,43.40
2023-02-09T10:30:51.517Z,44.64
2023-02-09T10:31:51.562Z,44.76
2023-02-09T10:32:51.326Z,45.19
2023-02-09T10:33:51.316Z,45.91
2023-02-09T10:34:51.319Z,45.72
2023-02-09T10:35:51.304Z,44.80
2023-02-09T10:36:51.277Z,46.98
2023-02-09T10:37:51.258Z,47.70
2023-02-09T10:38:51.249Z,47.91
2023-02-09T10:39:51.249Z,48.83
2023-02-09T10:40:51.241Z,48.52
2023-02-09T10:41:51.213Z,46.36
2023-02-09T10:42:51.214Z,46.36
2023-02-09T10:43:51.187Z,48.13
2023-02-09T10:44:51.177Z,43.61
2023-02-09T10:45:51.209Z,44.74
2023-02-09T10:46:51.226Z,43.12
2023-02-09T10:47:51.127Z,46.41
2023-02-09T10:48:51.124Z,44.37
2023-02-09T10:49:53.066Z,42.62
2023-02-09T10:50:51.117Z,41.61
2023-02-09T10:51:51.200Z,45.62
2023-02-09T10:52:51.063Z,48.33
2023-02-09T10:53:51.081Z,45.23
2023-02-09T10:54:51.125Z,46.16
2023-02-09T10:55:51.027Z,47.19
2023-02-09T10:56:51.024Z,44.10
2023-02-09T10:57:50.992Z,45.23
2023-02-09T10:58:50.981Z,43.90
2023-02-09T10:59:50.975Z,42.37
2023-02-09T11:00:50.965Z,43.81
2023-02-09T11:01:51.039Z,47.52
2023-02-09T11:02:50.939Z,44.56
2023-02-09T11:03:50.921Z,44.56
2023-02-09T11:04:51.010Z,50.43
2023-02-09T11:05:50.895Z,51.26
2023-02-09T11:06:50.934Z,50.74
2023-02-09T11:07:50.865Z,45.59
2023-02-09T11:08:50.855Z,50.43
2023-02-09T11:09:50.837Z,50.64
2023-02-09T11:10:50.850Z,50.95
2023-02-09T11:11:51.053Z,47.75
2023-02-09T11:12:50.806Z,49.71
2023-02-09T11:13:50.786Z,49.94
2023-02-09T11:14:50.787Z,50.35
2023-02-09T11:15:50.787Z,48.29
2023-02-09T11:16:50.785Z,44.47
2023-02-09T11:17:50.745Z,45.42
2023-02-09T11:18:50.803Z,44.41
2023-02-09T11:19:50.711Z,49.88
2023-02-09T11:20:50.705Z,47.81
2023-02-09T11:21:50.708Z,45.75
2023-02-09T11:22:50.691Z,50.20
2023-02-09T11:23:50.666Z,52.78
2023-02-09T11:24:50.654Z,46.06
2023-02-09T11:25:50.634Z,47.81
2023-02-09T11:26:50.645Z,46.17
2023-02-09T11:27:50.643Z,47.32
2023-02-09T11:28:50.595Z,47.02
2023-02-09T11:29:50.582Z,44.84
2023-02-09T11:30:51.109Z,46.21
2023-02-09T11:31:50.632Z,49.52
2023-02-09T11:32:50.545Z,44.76
2023-02-09T11:33:50.525Z,44.86
2023-02-09T11:34:50.522Z,44.99
2023-02-09T11:35:50.516Z,43.95
2023-02-09T11:36:50.504Z,45.32
2023-02-09T11:37:50.474Z,44.70
2023-02-09T11:38:50.475Z,50.16
2023-02-09T11:39:50.457Z,48.40
2023-02-09T11:40:50.447Z,48.82
2023-02-09T11:41:50.433Z,46.85
2023-02-09T11:42:50.434Z,47.78
2023-02-09T11:43:50.403Z,52.83
2023-02-09T11:44:50.394Z,53.13
2023-02-09T11:45:50.425Z,50.45
2023-02-09T11:46:50.435Z,50.96
2023-02-09T11:47:50.404Z,47.66
2023-02-09T11:48:50.352Z,45.48
2023-02-09T11:49:50.336Z,51.48
2023-02-09T11:50:50.339Z,53.03
2023-02-09T11:51:50.303Z,53.75
2023-02-09T11:52:50.294Z,50.96
2023-02-09T11:53:50.278Z,49.72
2023-02-09T11:54:50.315Z,52.20
2023-02-09T11:55:50.258Z,51.07
2023-02-09T11:56:50.247Z,51.87
2023-02-09T11:57:50.222Z,50.94
2023-02-09T11:58:50.208Z,52.80
2023-02-09T11:59:50.206Z,53.00
2023-02-09T12:00:56.218Z,51.66
2023-02-09T12:01:51.170Z,53.94
2023-02-09T12:02:50.243Z,50.96
2023-02-09T12:03:50.143Z,52.10
2023-02-09T12:04:50.155Z,54.38
2023-02-09T12:05:50.109Z,54.27
2023-02-09T12:06:50.135Z,53.75
2023-02-09T12:07:50.095Z,53.65
2023-02-09T12:08:50.079Z,52.20
2023-02-09T12:09:50.071Z,52.20
2023-02-09T12:10:50.064Z,53.96
2023-02-09T12:11:50.048Z,52.62
2023-02-09T12:12:50.027Z,55.20
2023-02-09T12:13:50.492Z,54.38
2023-02-09T12:14:50.001Z,55.20
2023-02-09T12:15:50.017Z,54.06
2023-02-09T12:16:50.039Z,52.51
2023-02-09T12:17:49.956Z,56.03
2023-02-09T12:18:49.960Z,54.89
2023-02-09T12:19:50.576Z,54.68
2023-02-09T12:20:49.936Z,51.28
2023-02-09T12:21:49.919Z,54.17
2023-02-09T12:22:49.913Z,53.16
2023-02-09T12:23:49.906Z,53.78
2023-02-09T12:24:49.878Z,47.47
2023-02-09T12:25:51.427Z,49.98
2023-02-09T12:26:49.882Z,52.77
2023-02-09T12:27:51.315Z,54.01
2023-02-09T12:28:49.818Z,52.46
2023-02-09T12:29:49.805Z,53.28
2023-02-09T12:30:49.956Z,50.60
2023-02-09T12:31:49.855Z,51.11
2023-02-09T12:32:49.764Z,53.49
2023-02-09T12:33:49.777Z,51.73
2023-02-09T12:34:49.752Z,46.27
2023-02-09T12:35:49.721Z,49.58
2023-02-09T12:36:49.726Z,47.92
2023-02-09T12:37:49.701Z,51.86
2023-02-09T12:38:52.261Z,51.55
2023-02-09T12:39:50.670Z,50.31
2023-02-09T12:40:49.683Z,50.51
2023-02-09T12:41:49.645Z,51.76
2023-02-09T12:42:49.665Z,51.76
2023-02-09T12:43:49.617Z,51.97
2023-02-09T12:44:49.607Z,52.38
2023-02-09T12:45:50.015Z,53.59
2023-02-09T12:46:49.587Z,52.98
2023-02-09T12:47:49.577Z,50.49
2023-02-09T12:48:49.569Z,47.70
2023-02-09T12:49:49.536Z,48.65
2023-02-09T12:50:49.532Z,50.72
2023-02-09T12:51:49.518Z,51.24